sensor_id;sensor_type;location;lat;lon;timestamp;temperature;humidity
18998;DHT22;9632;51.018;4.284;2024-02-04T00:01:18;12.50;99.90
18998;DHT22;9632;51.018;4.284;2024-02-04T00:03:44;12.50;99.90
18998;DHT22;9632;51.018;4.284;2024-02-04T00:06:10;12.60;99.90
18998;DHT22;9632;51.018;4.284;2024-02-04T00:08:36;12.60;99.90
18998;DHT22;9632;51.018;4.284;2024-02-04T00:11:02;12.60;99.90
18998;DHT22;9632;51.018;4.284;2024-02-04T00:13:30;12.70;99.90
18998;DHT22;9632;51.018;4.284;2024-02-04T00:15:56;12.60;99.90
18998;DHT22;9632;51.018;4.284;2024-02-04T00:18:24;12.70;99.90
18998;DHT22;9632;51.018;4.284;2024-02-04T00:20:50;12.70;99.90
18998;DHT22;9632;51.018;4.284;2024-02-04T00:23:15;12.70;99.90
18998;DHT22;9632;51.018;4.284;2024-02-04T00:25:41;12.70;99.90
18998;DHT22;9632;51.018;4.284;2024-02-04T00:28:07;12.70;99.90
18998;DHT22;9632;51.018;4.284;2024-02-04T00:30:37;12.60;99.90
18998;DHT22;9632;51.018;4.284;2024-02-04T00:33:03;12.60;99.90
18998;DHT22;9632;51.018;4.284;2024-02-04T00:35:29;12.60;99.90
18998;DHT22;9632;51.018;4.284;2024-02-04T00:37:55;12.60;99.90
18998;DHT22;9632;51.018;4.284;2024-02-04T00:40:21;12.60;99.90
18998;DHT22;9632;51.018;4.284;2024-02-04T00:42:47;12.60;99.90
18998;DHT22;9632;51.018;4.284;2024-02-04T00:45:12;12.60;99.90
18998;DHT22;9632;51.018;4.284;2024-02-04T00:47:38;12.60;99.90
18998;DHT22;9632;51.018;4.284;2024-02-04T00:50:04;12.60;99.90
18998;DHT22;9632;51.018;4.284;2024-02-04T00:52:30;12.60;99.90
18998;DHT22;9632;51.018;4.284;2024-02-04T00:54:55;12.60;99.90
18998;DHT22;9632;51.018;4.284;2024-02-04T00:57:21;12.60;99.90
18998;DHT22;9632;51.018;4.284;2024-02-04T00:59:47;12.60;99.90
18998;DHT22;9632;51.018;4.284;2024-02-04T01:02:12;12.60;99.90
18998;DHT22;9632;51.018;4.284;2024-02-04T01:04:38;12.60;99.90
18998;DHT22;9632;51.018;4.284;2024-02-04T01:07:04;12.60;99.90
18998;DHT22;9632;51.018;4.284;2024-02-04T01:09:30;12.70;99.90
18998;DHT22;9632;51.018;4.284;2024-02-04T01:11:55;12.60;99.90
18998;DHT22;9632;51.018;4.284;2024-02-04T01:14:21;12.60;99.90
18998;DHT22;9632;51.018;4.284;2024-02-04T01:16:47;12.70;99.90
18998;DHT22;9632;51.018;4.284;2024-02-04T01:19:12;12.70;99.90
18998;DHT22;9632;51.018;4.284;2024-02-04T01:21:38;12.70;99.90
18998;DHT22;9632;51.018;4.284;2024-02-04T01:24:04;12.60;99.90
18998;DHT22;9632;51.018;4.284;2024-02-04T01:26:29;12.60;99.90
18998;DHT22;9632;51.018;4.284;2024-02-04T01:28:55;12.70;99.90
18998;DHT22;9632;51.018;4.284;2024-02-04T01:31:21;12.60;99.90
18998;DHT22;9632;51.018;4.284;2024-02-04T01:33:46;12.60;99.90
18998;DHT22;9632;51.018;4.284;2024-02-04T01:36:12;12.60;99.90
18998;DHT22;9632;51.018;4.284;2024-02-04T01:38:37;12.70;99.90
18998;DHT22;9632;51.018;4.284;2024-02-04T01:41:03;12.70;99.90
18998;DHT22;9632;51.018;4.284;2024-02-04T01:43:29;12.70;99.90
18998;DHT22;9632;51.018;4.284;2024-02-04T01:45:56;12.70;99.90
18998;DHT22;9632;51.018;4.284;2024-02-04T01:48:21;12.60;99.90
18998;DHT22;9632;51.018;4.284;2024-02-04T01:50:49;12.70;99.90
18998;DHT22;9632;51.018;4.284;2024-02-04T01:53:17;12.70;99.90
18998;DHT22;9632;51.018;4.284;2024-02-04T01:55:44;12.70;99.90
18998;DHT22;9632;51.018;4.284;2024-02-04T01:58:10;12.60;99.90
18998;DHT22;9632;51.018;4.284;2024-02-04T02:00:36;12.70;99.90
18998;DHT22;9632;51.018;4.284;2024-02-04T02:03:05;12.60;99.90
18998;DHT22;9632;51.018;4.284;2024-02-04T02:05:32;12.70;99.90
18998;DHT22;9632;51.018;4.284;2024-02-04T02:07:58;12.70;99.90
18998;DHT22;9632;51.018;4.284;2024-02-04T02:10:23;12.60;99.90
18998;DHT22;9632;51.018;4.284;2024-02-04T02:13:09;12.60;99.90
18998;DHT22;9632;51.018;4.284;2024-02-04T02:15:43;12.60;99.90
18998;DHT22;9632;51.018;4.284;2024-02-04T02:18:14;12.70;99.90
18998;DHT22;9632;51.018;4.284;2024-02-04T02:24:03;12.70;99.90
18998;DHT22;9632;51.018;4.284;2024-02-04T02:26:33;12.70;99.90
18998;DHT22;9632;51.018;4.284;2024-02-04T02:28:59;12.70;99.90
18998;DHT22;9632;51.018;4.284;2024-02-04T02:31:25;12.70;99.90
18998;DHT22;9632;51.018;4.284;2024-02-04T02:33:51;12.70;99.90
18998;DHT22;9632;51.018;4.284;2024-02-04T02:36:21;12.70;99.90
18998;DHT22;9632;51.018;4.284;2024-02-04T02:38:56;12.70;99.90
18998;DHT22;9632;51.018;4.284;2024-02-04T02:41:26;12.70;99.90
18998;DHT22;9632;51.018;4.284;2024-02-04T02:43:56;12.80;99.90
18998;DHT22;9632;51.018;4.284;2024-02-04T02:46:23;12.80;99.90
18998;DHT22;9632;51.018;4.284;2024-02-04T02:48:49;12.70;99.90
18998;DHT22;9632;51.018;4.284;2024-02-04T02:51:16;12.70;99.90
18998;DHT22;9632;51.018;4.284;2024-02-04T02:53:41;12.70;99.90
18998;DHT22;9632;51.018;4.284;2024-02-04T02:56:07;12.70;99.90
18998;DHT22;9632;51.018;4.284;2024-02-04T02:58:33;12.60;99.90
18998;DHT22;9632;51.018;4.284;2024-02-04T03:00:58;12.60;99.90
18998;DHT22;9632;51.018;4.284;2024-02-04T03:03:24;12.60;99.90
18998;DHT22;9632;51.018;4.284;2024-02-04T03:05:50;12.60;99.90
18998;DHT22;9632;51.018;4.284;2024-02-04T03:08:15;12.70;99.90
18998;DHT22;9632;51.018;4.284;2024-02-04T03:10:42;12.70;99.90
18998;DHT22;9632;51.018;4.284;2024-02-04T03:13:07;12.70;99.90
18998;DHT22;9632;51.018;4.284;2024-02-04T03:15:33;12.70;99.90
18998;DHT22;9632;51.018;4.284;2024-02-04T03:17:59;12.70;99.90
18998;DHT22;9632;51.018;4.284;2024-02-04T03:20:24;12.70;99.90
18998;DHT22;9632;51.018;4.284;2024-02-04T03:22:50;12.70;99.90
18998;DHT22;9632;51.018;4.284;2024-02-04T03:25:16;12.70;99.90
18998;DHT22;9632;51.018;4.284;2024-02-04T03:27:42;12.70;99.90
18998;DHT22;9632;51.018;4.284;2024-02-04T03:30:08;12.70;99.90
18998;DHT22;9632;51.018;4.284;2024-02-04T03:32:33;12.70;99.90
18998;DHT22;9632;51.018;4.284;2024-02-04T03:35:03;12.60;99.90
18998;DHT22;9632;51.018;4.284;2024-02-04T03:37:29;12.60;99.90
18998;DHT22;9632;51.018;4.284;2024-02-04T03:39:54;12.60;99.90
18998;DHT22;9632;51.018;4.284;2024-02-04T03:42:20;12.60;99.90
18998;DHT22;9632;51.018;4.284;2024-02-04T03:44:47;12.60;99.90
18998;DHT22;9632;51.018;4.284;2024-02-04T03:47:13;12.50;99.90
18998;DHT22;9632;51.018;4.284;2024-02-04T03:49:40;12.50;99.90
18998;DHT22;9632;51.018;4.284;2024-02-04T03:52:05;12.60;99.90
18998;DHT22;9632;51.018;4.284;2024-02-04T03:54:31;12.60;99.90
18998;DHT22;9632;51.018;4.284;2024-02-04T03:56:57;12.60;99.90
18998;DHT22;9632;51.018;4.284;2024-02-04T03:59:22;12.60;99.90
18998;DHT22;9632;51.018;4.284;2024-02-04T04:01:51;12.60;99.90
18998;DHT22;9632;51.018;4.284;2024-02-04T04:04:18;12.70;99.90
18998;DHT22;9632;51.018;4.284;2024-02-04T04:06:45;12.60;99.90
18998;DHT22;9632;51.018;4.284;2024-02-04T04:09:11;12.70;99.90
18998;DHT22;9632;51.018;4.284;2024-02-04T04:11:37;12.60;99.90
18998;DHT22;9632;51.018;4.284;2024-02-04T04:14:02;12.60;99.90
18998;DHT22;9632;51.018;4.284;2024-02-04T04:16:28;12.60;99.90
18998;DHT22;9632;51.018;4.284;2024-02-04T04:18:54;12.60;99.90
18998;DHT22;9632;51.018;4.284;2024-02-04T04:21:20;12.60;99.90
18998;DHT22;9632;51.018;4.284;2024-02-04T04:23:46;12.70;99.90
18998;DHT22;9632;51.018;4.284;2024-02-04T04:26:12;12.70;99.90
18998;DHT22;9632;51.018;4.284;2024-02-04T04:28:38;12.70;99.90
18998;DHT22;9632;51.018;4.284;2024-02-04T04:31:03;12.70;99.90
18998;DHT22;9632;51.018;4.284;2024-02-04T04:33:30;12.70;99.90
18998;DHT22;9632;51.018;4.284;2024-02-04T04:35:55;12.70;99.90
18998;DHT22;9632;51.018;4.284;2024-02-04T04:38:21;12.70;99.90
18998;DHT22;9632;51.018;4.284;2024-02-04T04:40:47;12.70;99.90
18998;DHT22;9632;51.018;4.284;2024-02-04T04:43:13;12.70;99.90
18998;DHT22;9632;51.018;4.284;2024-02-04T04:45:38;12.70;99.90
18998;DHT22;9632;51.018;4.284;2024-02-04T04:48:04;12.70;99.90
18998;DHT22;9632;51.018;4.284;2024-02-04T04:50:30;12.70;99.90
18998;DHT22;9632;51.018;4.284;2024-02-04T04:52:56;12.60;99.90
18998;DHT22;9632;51.018;4.284;2024-02-04T04:55:21;12.60;99.90
18998;DHT22;9632;51.018;4.284;2024-02-04T04:57:47;12.50;99.90
18998;DHT22;9632;51.018;4.284;2024-02-04T05:00:13;12.50;99.90
18998;DHT22;9632;51.018;4.284;2024-02-04T05:02:42;12.50;99.90
18998;DHT22;9632;51.018;4.284;2024-02-04T05:05:10;12.50;99.90
18998;DHT22;9632;51.018;4.284;2024-02-04T05:07:37;12.50;99.90
18998;DHT22;9632;51.018;4.284;2024-02-04T05:10:02;12.50;99.90
18998;DHT22;9632;51.018;4.284;2024-02-04T05:12:28;12.50;99.90
18998;DHT22;9632;51.018;4.284;2024-02-04T05:14:54;12.60;99.90
18998;DHT22;9632;51.018;4.284;2024-02-04T05:17:19;12.50;99.90
18998;DHT22;9632;51.018;4.284;2024-02-04T05:19:45;12.50;99.90
18998;DHT22;9632;51.018;4.284;2024-02-04T05:22:11;12.50;99.90
18998;DHT22;9632;51.018;4.284;2024-02-04T05:24:36;12.50;99.90
18998;DHT22;9632;51.018;4.284;2024-02-04T05:27:02;12.60;99.90
18998;DHT22;9632;51.018;4.284;2024-02-04T05:29:28;12.60;99.90
18998;DHT22;9632;51.018;4.284;2024-02-04T05:31:53;12.60;99.90
18998;DHT22;9632;51.018;4.284;2024-02-04T05:34:19;12.60;99.90
18998;DHT22;9632;51.018;4.284;2024-02-04T05:36:45;12.60;99.90
18998;DHT22;9632;51.018;4.284;2024-02-04T05:39:11;12.60;99.90
18998;DHT22;9632;51.018;4.284;2024-02-04T05:41:37;12.60;99.90
18998;DHT22;9632;51.018;4.284;2024-02-04T05:44:03;12.60;99.90
18998;DHT22;9632;51.018;4.284;2024-02-04T05:46:29;12.60;99.90
18998;DHT22;9632;51.018;4.284;2024-02-04T05:48:55;12.70;99.90
18998;DHT22;9632;51.018;4.284;2024-02-04T05:51:21;12.70;99.90
18998;DHT22;9632;51.018;4.284;2024-02-04T05:53:47;12.70;99.90
18998;DHT22;9632;51.018;4.284;2024-02-04T05:56:12;12.60;99.90
18998;DHT22;9632;51.018;4.284;2024-02-04T05:58:39;12.60;99.90
18998;DHT22;9632;51.018;4.284;2024-02-04T06:01:04;12.60;99.90
18998;DHT22;9632;51.018;4.284;2024-02-04T06:03:30;12.60;99.90
18998;DHT22;9632;51.018;4.284;2024-02-04T06:05:55;12.70;99.90
18998;DHT22;9632;51.018;4.284;2024-02-04T06:08:21;12.70;99.90
18998;DHT22;9632;51.018;4.284;2024-02-04T06:10:47;12.60;99.90
18998;DHT22;9632;51.018;4.284;2024-02-04T06:13:12;12.60;99.90
18998;DHT22;9632;51.018;4.284;2024-02-04T06:15:38;12.60;99.90
18998;DHT22;9632;51.018;4.284;2024-02-04T06:18:04;12.70;99.90
18998;DHT22;9632;51.018;4.284;2024-02-04T06:20:29;12.70;99.90
18998;DHT22;9632;51.018;4.284;2024-02-04T06:22:55;12.60;99.90
18998;DHT22;9632;51.018;4.284;2024-02-04T06:25:23;12.60;99.90
18998;DHT22;9632;51.018;4.284;2024-02-04T06:27:49;12.60;99.90
18998;DHT22;9632;51.018;4.284;2024-02-04T06:30:14;12.60;99.90
18998;DHT22;9632;51.018;4.284;2024-02-04T06:32:41;12.60;99.90
18998;DHT22;9632;51.018;4.284;2024-02-04T06:35:07;12.70;99.90
18998;DHT22;9632;51.018;4.284;2024-02-04T06:37:32;12.60;99.90
18998;DHT22;9632;51.018;4.284;2024-02-04T06:39:58;12.60;99.90
18998;DHT22;9632;51.018;4.284;2024-02-04T06:42:23;12.70;99.90
18998;DHT22;9632;51.018;4.284;2024-02-04T06:44:49;12.60;99.90
18998;DHT22;9632;51.018;4.284;2024-02-04T06:47:15;12.60;99.90
18998;DHT22;9632;51.018;4.284;2024-02-04T06:49:44;12.60;99.90
18998;DHT22;9632;51.018;4.284;2024-02-04T06:52:10;12.60;99.90
18998;DHT22;9632;51.018;4.284;2024-02-04T06:54:36;12.60;99.90
18998;DHT22;9632;51.018;4.284;2024-02-04T06:57:02;12.60;99.90
18998;DHT22;9632;51.018;4.284;2024-02-04T06:59:27;12.60;99.90
18998;DHT22;9632;51.018;4.284;2024-02-04T07:01:53;12.70;99.90
18998;DHT22;9632;51.018;4.284;2024-02-04T07:04:19;12.60;99.90
18998;DHT22;9632;51.018;4.284;2024-02-04T07:06:47;12.70;99.90
18998;DHT22;9632;51.018;4.284;2024-02-04T07:09:13;12.60;99.90
18998;DHT22;9632;51.018;4.284;2024-02-04T07:11:39;12.60;99.90
18998;DHT22;9632;51.018;4.284;2024-02-04T07:14:06;12.60;99.90
18998;DHT22;9632;51.018;4.284;2024-02-04T07:16:31;12.60;99.90
18998;DHT22;9632;51.018;4.284;2024-02-04T07:18:57;12.60;99.90
18998;DHT22;9632;51.018;4.284;2024-02-04T07:21:23;12.60;99.90
18998;DHT22;9632;51.018;4.284;2024-02-04T07:23:48;12.60;99.90
18998;DHT22;9632;51.018;4.284;2024-02-04T07:26:14;12.70;99.90
18998;DHT22;9632;51.018;4.284;2024-02-04T07:28:40;12.60;99.90
18998;DHT22;9632;51.018;4.284;2024-02-04T07:31:05;12.60;99.90
18998;DHT22;9632;51.018;4.284;2024-02-04T07:33:31;12.50;99.90
18998;DHT22;9632;51.018;4.284;2024-02-04T07:35:57;12.50;99.90
18998;DHT22;9632;51.018;4.284;2024-02-04T07:38:22;12.40;99.90
18998;DHT22;9632;51.018;4.284;2024-02-04T07:40:48;12.50;99.90
18998;DHT22;9632;51.018;4.284;2024-02-04T07:43:13;12.50;99.90
18998;DHT22;9632;51.018;4.284;2024-02-04T07:45:39;12.50;99.90
18998;DHT22;9632;51.018;4.284;2024-02-04T07:48:05;12.50;99.90
18998;DHT22;9632;51.018;4.284;2024-02-04T07:50:31;12.50;99.90
18998;DHT22;9632;51.018;4.284;2024-02-04T07:52:56;12.50;99.90
18998;DHT22;9632;51.018;4.284;2024-02-04T07:55:22;12.50;99.90
18998;DHT22;9632;51.018;4.284;2024-02-04T07:57:47;12.50;99.90
18998;DHT22;9632;51.018;4.284;2024-02-04T08:00:13;12.50;99.90
18998;DHT22;9632;51.018;4.284;2024-02-04T08:02:39;12.50;99.90
18998;DHT22;9632;51.018;4.284;2024-02-04T08:05:05;12.50;99.90
18998;DHT22;9632;51.018;4.284;2024-02-04T08:07:31;12.50;99.90
18998;DHT22;9632;51.018;4.284;2024-02-04T08:09:57;12.50;99.90
18998;DHT22;9632;51.018;4.284;2024-02-04T08:12:23;12.40;99.90
18998;DHT22;9632;51.018;4.284;2024-02-04T08:14:48;12.50;99.90
18998;DHT22;9632;51.018;4.284;2024-02-04T08:17:14;12.50;99.90
18998;DHT22;9632;51.018;4.284;2024-02-04T08:19:41;12.60;99.90
18998;DHT22;9632;51.018;4.284;2024-02-04T08:22:07;12.60;99.90
18998;DHT22;9632;51.018;4.284;2024-02-04T08:24:33;12.50;99.90
18998;DHT22;9632;51.018;4.284;2024-02-04T08:26:59;12.50;99.90
18998;DHT22;9632;51.018;4.284;2024-02-04T08:29:25;12.40;99.90
18998;DHT22;9632;51.018;4.284;2024-02-04T08:31:52;12.50;99.90
18998;DHT22;9632;51.018;4.284;2024-02-04T08:34:18;12.50;99.90
18998;DHT22;9632;51.018;4.284;2024-02-04T08:36:45;12.50;99.90
18998;DHT22;9632;51.018;4.284;2024-02-04T08:39:11;12.60;99.90
18998;DHT22;9632;51.018;4.284;2024-02-04T08:41:37;12.60;99.90
18998;DHT22;9632;51.018;4.284;2024-02-04T08:44:03;12.60;99.90
18998;DHT22;9632;51.018;4.284;2024-02-04T08:46:28;12.60;99.90
18998;DHT22;9632;51.018;4.284;2024-02-04T08:48:54;12.60;99.90
18998;DHT22;9632;51.018;4.284;2024-02-04T08:51:20;12.70;99.90
18998;DHT22;9632;51.018;4.284;2024-02-04T08:53:45;12.70;99.90
18998;DHT22;9632;51.018;4.284;2024-02-04T08:56:11;12.80;99.90
18998;DHT22;9632;51.018;4.284;2024-02-04T08:58:37;12.70;99.90
18998;DHT22;9632;51.018;4.284;2024-02-04T09:01:06;12.70;99.90
18998;DHT22;9632;51.018;4.284;2024-02-04T09:03:32;12.70;99.90
18998;DHT22;9632;51.018;4.284;2024-02-04T09:05:58;12.70;99.90
18998;DHT22;9632;51.018;4.284;2024-02-04T09:08:24;12.70;99.90
18998;DHT22;9632;51.018;4.284;2024-02-04T09:10:49;12.70;99.90
18998;DHT22;9632;51.018;4.284;2024-02-04T09:13:15;12.60;99.90
18998;DHT22;9632;51.018;4.284;2024-02-04T09:15:41;12.60;99.90
18998;DHT22;9632;51.018;4.284;2024-02-04T09:18:07;12.60;99.90
18998;DHT22;9632;51.018;4.284;2024-02-04T09:20:33;12.60;99.90
18998;DHT22;9632;51.018;4.284;2024-02-04T09:22:59;12.60;99.90
18998;DHT22;9632;51.018;4.284;2024-02-04T09:25:25;12.60;99.90
18998;DHT22;9632;51.018;4.284;2024-02-04T09:27:50;12.60;99.90
18998;DHT22;9632;51.018;4.284;2024-02-04T09:30:16;12.70;99.90
18998;DHT22;9632;51.018;4.284;2024-02-04T09:32:42;12.70;99.90
18998;DHT22;9632;51.018;4.284;2024-02-04T09:35:08;12.80;99.90
18998;DHT22;9632;51.018;4.284;2024-02-04T09:37:35;12.70;99.90
18998;DHT22;9632;51.018;4.284;2024-02-04T09:40:01;12.70;99.90
18998;DHT22;9632;51.018;4.284;2024-02-04T09:42:26;12.80;99.90
18998;DHT22;9632;51.018;4.284;2024-02-04T09:44:53;12.80;99.90
18998;DHT22;9632;51.018;4.284;2024-02-04T09:47:20;12.80;99.90
18998;DHT22;9632;51.018;4.284;2024-02-04T09:49:46;12.70;99.90
18998;DHT22;9632;51.018;4.284;2024-02-04T09:52:13;12.80;99.90
18998;DHT22;9632;51.018;4.284;2024-02-04T09:54:47;12.80;99.90
18998;DHT22;9632;51.018;4.284;2024-02-04T09:57:15;12.90;99.90
18998;DHT22;9632;51.018;4.284;2024-02-04T09:59:44;12.90;99.90
18998;DHT22;9632;51.018;4.284;2024-02-04T10:02:10;12.90;99.90
18998;DHT22;9632;51.018;4.284;2024-02-04T10:04:36;12.90;99.90
18998;DHT22;9632;51.018;4.284;2024-02-04T10:07:02;12.90;99.90
18998;DHT22;9632;51.018;4.284;2024-02-04T10:09:28;13.00;99.90
18998;DHT22;9632;51.018;4.284;2024-02-04T10:11:56;13.00;99.90
18998;DHT22;9632;51.018;4.284;2024-02-04T10:14:22;13.10;99.90
18998;DHT22;9632;51.018;4.284;2024-02-04T10:16:47;13.10;99.90
18998;DHT22;9632;51.018;4.284;2024-02-04T10:19:13;13.10;99.90
18998;DHT22;9632;51.018;4.284;2024-02-04T10:21:39;13.20;99.90
18998;DHT22;9632;51.018;4.284;2024-02-04T10:24:06;13.20;99.90
18998;DHT22;9632;51.018;4.284;2024-02-04T10:26:32;13.30;99.90
18998;DHT22;9632;51.018;4.284;2024-02-04T10:28:59;13.30;99.90
18998;DHT22;9632;51.018;4.284;2024-02-04T10:31:26;13.40;99.90
18998;DHT22;9632;51.018;4.284;2024-02-04T10:33:52;13.40;99.90
18998;DHT22;9632;51.018;4.284;2024-02-04T10:36:18;13.40;99.90
18998;DHT22;9632;51.018;4.284;2024-02-04T10:38:43;13.50;99.90
18998;DHT22;9632;51.018;4.284;2024-02-04T10:41:15;13.50;99.90
18998;DHT22;9632;51.018;4.284;2024-02-04T10:43:43;13.60;99.90
18998;DHT22;9632;51.018;4.284;2024-02-04T10:46:30;13.50;99.90
18998;DHT22;9632;51.018;4.284;2024-02-04T10:48:59;13.40;99.90
18998;DHT22;9632;51.018;4.284;2024-02-04T10:51:26;13.40;99.90
18998;DHT22;9632;51.018;4.284;2024-02-04T10:53:54;13.40;99.90
18998;DHT22;9632;51.018;4.284;2024-02-04T10:58:59;13.40;99.90
18998;DHT22;9632;51.018;4.284;2024-02-04T11:01:28;13.40;99.90
18998;DHT22;9632;51.018;4.284;2024-02-04T11:03:54;13.30;99.90
18998;DHT22;9632;51.018;4.284;2024-02-04T11:06:21;13.30;99.90
18998;DHT22;9632;51.018;4.284;2024-02-04T11:08:47;13.40;99.90
18998;DHT22;9632;51.018;4.284;2024-02-04T11:11:13;13.40;99.90
18998;DHT22;9632;51.018;4.284;2024-02-04T11:13:43;13.40;99.90
18998;DHT22;9632;51.018;4.284;2024-02-04T11:16:20;13.40;99.90
18998;DHT22;9632;51.018;4.284;2024-02-04T11:19:01;13.50;99.90
18998;DHT22;9632;51.018;4.284;2024-02-04T11:21:45;13.50;99.90
18998;DHT22;9632;51.018;4.284;2024-02-04T11:26:45;13.60;99.90
18998;DHT22;9632;51.018;4.284;2024-02-04T11:29:11;13.60;99.90
18998;DHT22;9632;51.018;4.284;2024-02-04T11:31:39;13.60;99.90
18998;DHT22;9632;51.018;4.284;2024-02-04T11:34:08;13.60;99.90
18998;DHT22;9632;51.018;4.284;2024-02-04T11:36:40;13.60;99.90
18998;DHT22;9632;51.018;4.284;2024-02-04T11:39:13;13.60;99.90
18998;DHT22;9632;51.018;4.284;2024-02-04T11:41:45;13.50;99.90
18998;DHT22;9632;51.018;4.284;2024-02-04T11:44:24;13.50;99.90
18998;DHT22;9632;51.018;4.284;2024-02-04T11:46:50;13.50;99.90
18998;DHT22;9632;51.018;4.284;2024-02-04T11:49:23;13.50;99.90
18998;DHT22;9632;51.018;4.284;2024-02-04T11:51:52;13.50;99.90
18998;DHT22;9632;51.018;4.284;2024-02-04T11:54:20;13.50;99.90
18998;DHT22;9632;51.018;4.284;2024-02-04T11:56:49;13.50;99.90
18998;DHT22;9632;51.018;4.284;2024-02-04T11:59:23;13.50;99.90
18998;DHT22;9632;51.018;4.284;2024-02-04T12:02:05;13.50;99.90
18998;DHT22;9632;51.018;4.284;2024-02-04T12:04:32;13.60;99.90
18998;DHT22;9632;51.018;4.284;2024-02-04T12:06:58;13.50;99.90
18998;DHT22;9632;51.018;4.284;2024-02-04T12:09:24;13.50;99.90
18998;DHT22;9632;51.018;4.284;2024-02-04T12:11:53;13.50;99.90
18998;DHT22;9632;51.018;4.284;2024-02-04T12:14:19;13.50;99.90
18998;DHT22;9632;51.018;4.284;2024-02-04T12:16:46;13.50;99.90
18998;DHT22;9632;51.018;4.284;2024-02-04T12:19:12;13.50;99.90
18998;DHT22;9632;51.018;4.284;2024-02-04T12:21:38;13.60;99.90
18998;DHT22;9632;51.018;4.284;2024-02-04T12:24:04;13.70;99.90
18998;DHT22;9632;51.018;4.284;2024-02-04T12:26:30;13.70;99.90
18998;DHT22;9632;51.018;4.284;2024-02-04T12:28:56;13.70;99.90
18998;DHT22;9632;51.018;4.284;2024-02-04T12:31:25;13.70;99.90
18998;DHT22;9632;51.018;4.284;2024-02-04T12:33:58;13.70;99.90
18998;DHT22;9632;51.018;4.284;2024-02-04T12:36:28;13.70;99.90
18998;DHT22;9632;51.018;4.284;2024-02-04T12:38:58;13.60;99.90
18998;DHT22;9632;51.018;4.284;2024-02-04T12:41:26;13.60;99.90
18998;DHT22;9632;51.018;4.284;2024-02-04T12:43:54;13.70;99.90
18998;DHT22;9632;51.018;4.284;2024-02-04T12:46:20;13.70;99.90
18998;DHT22;9632;51.018;4.284;2024-02-04T12:48:57;13.70;99.90
18998;DHT22;9632;51.018;4.284;2024-02-04T12:51:27;13.80;99.90
18998;DHT22;9632;51.018;4.284;2024-02-04T12:54:06;13.80;99.90
18998;DHT22;9632;51.018;4.284;2024-02-04T12:56:49;13.80;99.90
18998;DHT22;9632;51.018;4.284;2024-02-04T12:59:25;13.80;99.90
18998;DHT22;9632;51.018;4.284;2024-02-04T13:01:58;13.80;99.90
18998;DHT22;9632;51.018;4.284;2024-02-04T13:04:26;13.80;99.90
18998;DHT22;9632;51.018;4.284;2024-02-04T13:06:52;13.80;99.90
18998;DHT22;9632;51.018;4.284;2024-02-04T13:09:18;13.80;99.90
18998;DHT22;9632;51.018;4.284;2024-02-04T13:11:45;13.80;99.90
18998;DHT22;9632;51.018;4.284;2024-02-04T13:14:10;13.80;99.90
18998;DHT22;9632;51.018;4.284;2024-02-04T13:16:37;13.80;99.90
18998;DHT22;9632;51.018;4.284;2024-02-04T13:19:04;13.80;99.90
18998;DHT22;9632;51.018;4.284;2024-02-04T13:21:29;13.70;99.90
18998;DHT22;9632;51.018;4.284;2024-02-04T13:23:56;13.70;99.90
18998;DHT22;9632;51.018;4.284;2024-02-04T13:26:21;13.70;99.90
18998;DHT22;9632;51.018;4.284;2024-02-04T13:28:47;13.80;99.90
18998;DHT22;9632;51.018;4.284;2024-02-04T13:31:13;13.80;99.90
18998;DHT22;9632;51.018;4.284;2024-02-04T13:33:39;13.80;99.90
18998;DHT22;9632;51.018;4.284;2024-02-04T13:36:09;13.80;99.90
18998;DHT22;9632;51.018;4.284;2024-02-04T13:38:35;13.80;99.90
18998;DHT22;9632;51.018;4.284;2024-02-04T13:41:01;13.80;99.90
18998;DHT22;9632;51.018;4.284;2024-02-04T13:43:27;13.80;99.90
18998;DHT22;9632;51.018;4.284;2024-02-04T13:45:53;13.90;99.90
18998;DHT22;9632;51.018;4.284;2024-02-04T13:48:19;13.90;99.90
18998;DHT22;9632;51.018;4.284;2024-02-04T13:50:47;13.90;99.90
18998;DHT22;9632;51.018;4.284;2024-02-04T13:53:13;14.00;99.90
18998;DHT22;9632;51.018;4.284;2024-02-04T13:55:39;14.00;99.90
18998;DHT22;9632;51.018;4.284;2024-02-04T13:58:04;13.90;99.90
18998;DHT22;9632;51.018;4.284;2024-02-04T14:00:30;13.90;99.90
18998;DHT22;9632;51.018;4.284;2024-02-04T14:02:56;13.90;99.90
18998;DHT22;9632;51.018;4.284;2024-02-04T14:05:21;13.80;99.90
18998;DHT22;9632;51.018;4.284;2024-02-04T14:07:47;13.80;99.90
18998;DHT22;9632;51.018;4.284;2024-02-04T14:10:12;13.80;99.90
18998;DHT22;9632;51.018;4.284;2024-02-04T14:12:40;13.80;99.90
18998;DHT22;9632;51.018;4.284;2024-02-04T14:15:09;13.80;99.90
18998;DHT22;9632;51.018;4.284;2024-02-04T14:17:35;13.80;99.90
18998;DHT22;9632;51.018;4.284;2024-02-04T14:20:00;13.80;99.90
18998;DHT22;9632;51.018;4.284;2024-02-04T14:22:26;13.70;99.90
18998;DHT22;9632;51.018;4.284;2024-02-04T14:24:53;13.70;99.90
18998;DHT22;9632;51.018;4.284;2024-02-04T14:27:19;13.70;99.90
18998;DHT22;9632;51.018;4.284;2024-02-04T14:29:44;13.70;99.90
18998;DHT22;9632;51.018;4.284;2024-02-04T14:32:10;13.70;99.90
18998;DHT22;9632;51.018;4.284;2024-02-04T14:34:36;13.80;99.90
18998;DHT22;9632;51.018;4.284;2024-02-04T14:37:01;13.80;99.90
18998;DHT22;9632;51.018;4.284;2024-02-04T14:39:27;13.80;99.90
18998;DHT22;9632;51.018;4.284;2024-02-04T14:41:52;13.70;99.90
18998;DHT22;9632;51.018;4.284;2024-02-04T14:44:20;13.70;99.90
18998;DHT22;9632;51.018;4.284;2024-02-04T14:46:45;13.70;99.90
18998;DHT22;9632;51.018;4.284;2024-02-04T14:49:11;13.70;99.90
18998;DHT22;9632;51.018;4.284;2024-02-04T14:51:40;13.70;99.90
18998;DHT22;9632;51.018;4.284;2024-02-04T14:54:07;13.70;99.90
18998;DHT22;9632;51.018;4.284;2024-02-04T14:56:41;13.80;99.90
18998;DHT22;9632;51.018;4.284;2024-02-04T14:59:11;13.80;99.90
18998;DHT22;9632;51.018;4.284;2024-02-04T15:01:37;13.80;99.90
18998;DHT22;9632;51.018;4.284;2024-02-04T15:04:03;13.80;99.90
18998;DHT22;9632;51.018;4.284;2024-02-04T15:06:30;13.70;99.90
18998;DHT22;9632;51.018;4.284;2024-02-04T15:08:56;13.80;99.90
18998;DHT22;9632;51.018;4.284;2024-02-04T15:11:23;13.80;99.90
18998;DHT22;9632;51.018;4.284;2024-02-04T15:13:49;13.80;99.90
18998;DHT22;9632;51.018;4.284;2024-02-04T15:16:15;13.80;99.90
18998;DHT22;9632;51.018;4.284;2024-02-04T15:18:41;13.90;99.90
18998;DHT22;9632;51.018;4.284;2024-02-04T15:21:07;13.90;99.90
18998;DHT22;9632;51.018;4.284;2024-02-04T15:23:33;13.90;99.90
18998;DHT22;9632;51.018;4.284;2024-02-04T15:26:01;13.80;99.90
18998;DHT22;9632;51.018;4.284;2024-02-04T15:28:27;13.80;99.90
18998;DHT22;9632;51.018;4.284;2024-02-04T15:30:53;13.80;99.90
18998;DHT22;9632;51.018;4.284;2024-02-04T15:33:20;13.70;99.90
18998;DHT22;9632;51.018;4.284;2024-02-04T15:35:46;13.70;99.90
18998;DHT22;9632;51.018;4.284;2024-02-04T15:38:12;13.70;99.90
18998;DHT22;9632;51.018;4.284;2024-02-04T15:40:38;13.70;99.90
18998;DHT22;9632;51.018;4.284;2024-02-04T15:43:03;13.70;99.90
18998;DHT22;9632;51.018;4.284;2024-02-04T15:45:30;13.80;99.90
18998;DHT22;9632;51.018;4.284;2024-02-04T15:47:55;13.70;99.90
18998;DHT22;9632;51.018;4.284;2024-02-04T15:50:23;13.70;99.90